<?xml version="1.0" encoding="utf-8"?>
<gpx xmlns:xsi="http://www.w3.org/2001/XMLSchema-instance" xmlns:xsd="http://www.w3.org/2001/XMLSchema" version="1.1" creator="Shapelink.com" xmlns="http://www.topografix.com/GPX/1/1" xmlns:gpxtpx="http://www.garmin.com/xmlschemas/TrackPointExtension/v1">
  <metadata>
    <name>Övrigt 1.01 km, 2020-05-31</name>
    <desc></desc>
    <author><name>Marian Moron</name></author> 
    <time>2020-05-31T10:35:54Z</time>
  </metadata>
  <trk>
    <name>Övrigt 1.01 km, 2020-05-31</name>
    <trkseg>
      <trkpt lat="51.229649182707" lon="4.457401297091">
        <ele>0</ele>
        <time>2020-05-31T10:35:54Z</time>
      </trkpt>
      <trkpt lat="51.229862082967" lon="4.457245309932">
        <ele>0</ele>
        <time>2020-05-31T10:35:55Z</time>
      </trkpt>
      <trkpt lat="51.229847163185" lon="4.457155120688">
        <ele>0</ele>
        <time>2020-05-31T10:35:58Z</time>
      </trkpt>
      <trkpt lat="51.230155449467" lon="4.456704928839">
        <ele>3.8</ele>
        <time>2020-05-31T10:36:41Z</time>
      </trkpt>
      <trkpt lat="51.230368601184" lon="4.45665203905">
        <ele>5</ele>
        <time>2020-05-31T10:37:03Z</time>
      </trkpt>
      <trkpt lat="51.230816949015" lon="4.456515749356">
        <ele>1</ele>
        <time>2020-05-31T10:37:50Z</time>
      </trkpt>
      <trkpt lat="51.231261357353" lon="4.45637040721">
        <ele>1.4</ele>
        <time>2020-05-31T10:38:34Z</time>
      </trkpt>
      <trkpt lat="51.231344673439" lon="4.456391026684">
        <ele>0.6</ele>
        <time>2020-05-31T10:38:42Z</time>
      </trkpt>
      <trkpt lat="51.231449279551" lon="4.456392870702">
        <ele>0.4</ele>
        <time>2020-05-31T10:39:01Z</time>
      </trkpt>
      <trkpt lat="51.231480795495" lon="4.456225651797">
        <ele>0.8</ele>
        <time>2020-05-31T10:39:13Z</time>
      </trkpt>
      <trkpt lat="51.231276277135" lon="4.455965477621">
        <ele>0</ele>
        <time>2020-05-31T10:39:37Z</time>
      </trkpt>
      <trkpt lat="51.231256160575" lon="4.45576942498">
        <ele>0</ele>
        <time>2020-05-31T10:39:50Z</time>
      </trkpt>
      <trkpt lat="51.231239648232" lon="4.455701280133">
        <ele>0</ele>
        <time>2020-05-31T10:39:55Z</time>
      </trkpt>
      <trkpt lat="51.2311870099" lon="4.455293249241">
        <ele>0</ele>
        <time>2020-05-31T10:40:25Z</time>
      </trkpt>
      <trkpt lat="51.231065053255" lon="4.454590594564">
        <ele>0</ele>
        <time>2020-05-31T10:41:08Z</time>
      </trkpt>
      <trkpt lat="51.230941504049" lon="4.453895064502">
        <ele>0</ele>
        <time>2020-05-31T10:41:49Z</time>
      </trkpt>
      <trkpt lat="51.230847123855" lon="4.453178412052">
        <ele>0</ele>
        <time>2020-05-31T10:42:33Z</time>
      </trkpt>
      <trkpt lat="51.230718210233" lon="4.452480283601">
        <ele>0</ele>
        <time>2020-05-31T10:43:15Z</time>
      </trkpt>
      <trkpt lat="51.230609413171" lon="4.451779724399">
        <ele>0</ele>
        <time>2020-05-31T10:43:58Z</time>
      </trkpt>
      <trkpt lat="51.230444122103" lon="4.451116548471">
        <ele>0</ele>
        <time>2020-05-31T10:44:38Z</time>
      </trkpt>
      <trkpt lat="51.230394333617" lon="4.451056114972">
        <ele>0</ele>
        <time>2020-05-31T10:44:44Z</time>
      </trkpt>
      <trkpt lat="51.230263827434" lon="4.451011607083">
        <ele>0</ele>
        <time>2020-05-31T10:45:00Z</time>
      </trkpt>
      <trkpt lat="51.229948584175" lon="4.45109986849">
        <ele>0</ele>
        <time>2020-05-31T10:45:40Z</time>
      </trkpt>
      <trkpt lat="51.229640130255" lon="4.450882274366">
        <ele>0</ele>
        <time>2020-05-31T10:46:30Z</time>
      </trkpt>
      <trkpt lat="51.229640465531" lon="4.45086685167">
        <ele>0</ele>
        <time>2020-05-31T10:46:31Z</time>
      </trkpt>
      <trkpt lat="51.229632838002" lon="4.450780266643">
        <ele>0</ele>
        <time>2020-05-31T10:46:37Z</time>
      </trkpt>
      <trkpt lat="51.229571482494" lon="4.450324291283">
        <ele>0</ele>
        <time>2020-05-31T10:47:09Z</time>
      </trkpt>
      <trkpt lat="51.229430331298" lon="4.449633538904">
        <ele>0</ele>
        <time>2020-05-31T10:47:51Z</time>
      </trkpt>
      <trkpt lat="51.229269147361" lon="4.44896667494">
        <ele>0</ele>
        <time>2020-05-31T10:48:35Z</time>
      </trkpt>
      <trkpt lat="51.229220197065" lon="4.448891992211">
        <ele>0</ele>
        <time>2020-05-31T10:48:42Z</time>
      </trkpt>
      <trkpt lat="51.228940995976" lon="4.448671380603">
        <ele>0</ele>
        <time>2020-05-31T10:50:16Z</time>
      </trkpt>
      <trkpt lat="51.228859104813" lon="4.448784117158">
        <ele>0</ele>
        <time>2020-05-31T10:50:23Z</time>
      </trkpt>
      <trkpt lat="51.228818620236" lon="4.448894674419">
        <ele>0</ele>
        <time>2020-05-31T10:50:32Z</time>
      </trkpt>
      <trkpt lat="51.228509579583" lon="4.449377974773">
        <ele>0</ele>
        <time>2020-05-31T10:51:50Z</time>
      </trkpt>
      <trkpt lat="51.228565403037" lon="4.449328856839">
        <ele>0</ele>
        <time>2020-05-31T10:52:06Z</time>
      </trkpt>
    </trkseg>
  </trk>
</gpx>